May, Texas
Current Conditions -  °F | °C
As of 6:35 PM on Monday 22 Dec 2014 (Local Time) from KBWD Reporting Station
Scattered Clouds Scattered Clouds  
Wind Chill: 59°   Ceiling: Unl
Heat Index: 59°   Visibility: 10mi
Dew Point: 39°   Wind: 6mph
Humidity: 48%   Direction: 30°NNE
Pressure: 29.7"   Gusts: NA
Location:  31.98°N, 98.92°W
Report Text: KBWD 230035Z AUTO 03005KT 10SM SCT110 15/04 A2970 RMK AO2
Loading
Personal Weather Stations






























Interactive Weather Map New forecast layout! Learn more

10-Day Weather Forecast

Advertisements
Track Severe Weather on mobile